sensor_id;sensor_type;location;lat;lon;timestamp;pressure;altitude;pressure_sealevel;temperature;humidity
55442;BME280;41313;58.740;50.174;2022-09-13T00:00:08;100703.22;;;10.32;68.40
55442;BME280;41313;58.740;50.174;2022-09-13T00:05:10;100708.72;;;10.25;68.33
55442;BME280;41313;58.740;50.174;2022-09-13T00:10:12;100707.28;;;10.18;68.50
55442;BME280;41313;58.740;50.174;2022-09-13T00:15:14;100717.56;;;10.23;68.41
55442;BME280;41313;58.740;50.174;2022-09-13T00:20:16;100716.72;;;10.22;68.20
55442;BME280;41313;58.740;50.174;2022-09-13T00:25:18;100714.94;;;10.23;68.00
55442;BME280;41313;58.740;50.174;2022-09-13T00:30:20;100716.94;;;10.18;67.69
55442;BME280;41313;58.740;50.174;2022-09-13T00:35:21;100717.47;;;10.06;68.62
55442;BME280;41313;58.740;50.174;2022-09-13T00:40:24;100711.53;;;10.00;68.51
55442;BME280;41313;58.740;50.174;2022-09-13T00:45:25;100715.81;;;10.03;68.53
55442;BME280;41313;58.740;50.174;2022-09-13T00:50:35;100715.41;;;10.12;68.20
55442;BME280;41313;58.740;50.174;2022-09-13T00:55:46;100715.94;;;10.20;67.64
55442;BME280;41313;58.740;50.174;2022-09-13T01:00:50;100713.59;;;10.14;68.07
55442;BME280;41313;58.740;50.174;2022-09-13T01:06:14;100710.28;;;10.09;68.24
55442;BME280;41313;58.740;50.174;2022-09-13T01:16:32;100716.44;;;9.88;68.87
55442;BME280;41313;58.740;50.174;2022-09-13T01:43:36;100708.38;;;10.13;68.11
55442;BME280;41313;58.740;50.174;2022-09-13T01:49:01;100716.69;;;10.02;68.10
55442;BME280;41313;58.740;50.174;2022-09-13T01:59:58;100713.50;;;9.95;68.58
55442;BME280;41313;58.740;50.174;2022-09-13T02:05:09;100707.25;;;9.98;68.97
55442;BME280;41313;58.740;50.174;2022-09-13T02:10:23;100715.41;;;10.12;68.51
55442;BME280;41313;58.740;50.174;2022-09-13T02:15:40;100719.22;;;10.25;67.94
55442;BME280;41313;58.740;50.174;2022-09-13T02:20:47;100721.84;;;10.25;68.18
55442;BME280;41313;58.740;50.174;2022-09-13T02:25:53;100729.09;;;10.41;68.10
55442;BME280;41313;58.740;50.174;2022-09-13T02:30:58;100722.00;;;10.43;68.26
55442;BME280;41313;58.740;50.174;2022-09-13T02:36:08;100714.28;;;10.59;67.59
55442;BME280;41313;58.740;50.174;2022-09-13T02:52:44;100732.09;;;10.72;67.39
55442;BME280;41313;58.740;50.174;2022-09-13T02:57:59;100737.22;;;10.76;67.52
55442;BME280;41313;58.740;50.174;2022-09-13T03:03:05;100731.53;;;10.85;67.33
55442;BME280;41313;58.740;50.174;2022-09-13T03:08:11;100737.78;;;10.82;67.55
55442;BME280;41313;58.740;50.174;2022-09-13T03:29:26;100739.53;;;11.02;67.34
55442;BME280;41313;58.740;50.174;2022-09-13T03:39:52;100744.06;;;11.17;67.08
55442;BME280;41313;58.740;50.174;2022-09-13T03:44:57;100748.31;;;11.39;66.48
55442;BME280;41313;58.740;50.174;2022-09-13T03:50:03;100742.88;;;11.25;67.35
55442;BME280;41313;58.740;50.174;2022-09-13T03:55:08;100741.75;;;11.30;67.31
55442;BME280;41313;58.740;50.174;2022-09-13T04:00:12;100746.78;;;11.35;66.99
55442;BME280;41313;58.740;50.174;2022-09-13T04:05:14;100750.06;;;11.40;67.04
55442;BME280;41313;58.740;50.174;2022-09-13T04:10:16;100742.81;;;11.45;66.79
55442;BME280;41313;58.740;50.174;2022-09-13T04:15:17;100753.34;;;11.62;66.22
55442;BME280;41313;58.740;50.174;2022-09-13T04:20:19;100763.53;;;11.70;66.23
55442;BME280;41313;58.740;50.174;2022-09-13T04:25:22;100753.69;;;11.74;65.96
55442;BME280;41313;58.740;50.174;2022-09-13T04:30:25;100760.44;;;11.79;66.00
55442;BME280;41313;58.740;50.174;2022-09-13T04:35:28;100759.72;;;11.95;65.69
55442;BME280;41313;58.740;50.174;2022-09-13T04:40:30;100761.66;;;11.91;65.11
55442;BME280;41313;58.740;50.174;2022-09-13T04:45:32;100761.53;;;12.12;65.07
55442;BME280;41313;58.740;50.174;2022-09-13T04:50:33;100754.28;;;12.17;65.24
55442;BME280;41313;58.740;50.174;2022-09-13T04:55:36;100754.41;;;12.31;64.65
55442;BME280;41313;58.740;50.174;2022-09-13T05:00:38;100749.69;;;12.38;64.74
55442;BME280;41313;58.740;50.174;2022-09-13T05:05:40;100750.44;;;12.57;64.76
55442;BME280;41313;58.740;50.174;2022-09-13T05:10:42;100758.97;;;12.62;64.38
55442;BME280;41313;58.740;50.174;2022-09-13T05:15:44;100758.81;;;12.65;64.23
55442;BME280;41313;58.740;50.174;2022-09-13T05:20:47;100754.03;;;12.89;63.36
55442;BME280;41313;58.740;50.174;2022-09-13T05:26:01;100749.53;;;12.91;63.75
55442;BME280;41313;58.740;50.174;2022-09-13T05:31:06;100756.19;;;13.14;63.85
55442;BME280;41313;58.740;50.174;2022-09-13T05:36:08;100760.69;;;13.30;62.90
55442;BME280;41313;58.740;50.174;2022-09-13T05:41:10;100760.16;;;13.55;62.81
55442;BME280;41313;58.740;50.174;2022-09-13T05:46:14;100760.06;;;13.72;62.70
55442;BME280;41313;58.740;50.174;2022-09-13T05:51:19;100766.88;;;13.76;62.43
55442;BME280;41313;58.740;50.174;2022-09-13T05:56:23;100765.28;;;14.04;61.79
55442;BME280;41313;58.740;50.174;2022-09-13T06:01:27;100772.19;;;14.36;61.04
55442;BME280;41313;58.740;50.174;2022-09-13T06:06:29;100773.78;;;14.55;60.44
55442;BME280;41313;58.740;50.174;2022-09-13T06:11:31;100783.47;;;14.85;60.34
55442;BME280;41313;58.740;50.174;2022-09-13T06:16:33;100790.47;;;15.00;59.93
55442;BME280;41313;58.740;50.174;2022-09-13T06:21:34;100788.34;;;15.19;59.25
55442;BME280;41313;58.740;50.174;2022-09-13T06:26:36;100791.69;;;15.23;59.50
55442;BME280;41313;58.740;50.174;2022-09-13T06:31:38;100790.41;;;15.28;59.03
55442;BME280;41313;58.740;50.174;2022-09-13T06:36:45;100791.38;;;15.42;58.54
55442;BME280;41313;58.740;50.174;2022-09-13T06:41:46;100790.19;;;15.60;58.51
55442;BME280;41313;58.740;50.174;2022-09-13T06:46:48;100786.25;;;15.53;59.14
55442;BME280;41313;58.740;50.174;2022-09-13T06:51:50;100790.84;;;15.64;58.77
55442;BME280;41313;58.740;50.174;2022-09-13T06:56:52;100799.84;;;15.76;58.63
55442;BME280;41313;58.740;50.174;2022-09-13T07:01:54;100801.34;;;15.80;58.21
55442;BME280;41313;58.740;50.174;2022-09-13T07:06:56;100803.16;;;16.06;58.07
55442;BME280;41313;58.740;50.174;2022-09-13T07:11:58;100815.03;;;16.13;57.02
55442;BME280;41313;58.740;50.174;2022-09-13T07:16:59;100815.06;;;16.26;57.30
55442;BME280;41313;58.740;50.174;2022-09-13T07:22:01;100815.00;;;16.40;56.97
55442;BME280;41313;58.740;50.174;2022-09-13T07:27:03;100820.44;;;16.39;55.57
55442;BME280;41313;58.740;50.174;2022-09-13T07:32:05;100834.97;;;16.46;55.57
55442;BME280;41313;58.740;50.174;2022-09-13T07:37:06;100830.13;;;16.66;54.83
55442;BME280;41313;58.740;50.174;2022-09-13T07:42:08;100833.44;;;16.69;54.53
55442;BME280;41313;58.740;50.174;2022-09-13T07:47:09;100837.03;;;16.68;54.80
55442;BME280;41313;58.740;50.174;2022-09-13T07:52:11;100836.53;;;16.76;54.67
55442;BME280;41313;58.740;50.174;2022-09-13T07:57:13;100841.97;;;17.00;53.79
55442;BME280;41313;58.740;50.174;2022-09-13T08:02:17;100837.09;;;17.06;52.92
55442;BME280;41313;58.740;50.174;2022-09-13T08:07:18;100840.38;;;17.23;52.96
55442;BME280;41313;58.740;50.174;2022-09-13T08:12:20;100840.66;;;17.31;52.36
55442;BME280;41313;58.740;50.174;2022-09-13T08:17:22;100845.34;;;17.40;50.99
55442;BME280;41313;58.740;50.174;2022-09-13T08:22:24;100836.19;;;17.44;51.56
55442;BME280;41313;58.740;50.174;2022-09-13T08:27:27;100833.59;;;17.68;51.18
55442;BME280;41313;58.740;50.174;2022-09-13T08:32:29;100840.59;;;17.69;51.30
55442;BME280;41313;58.740;50.174;2022-09-13T08:37:31;100829.06;;;17.94;51.04
55442;BME280;41313;58.740;50.174;2022-09-13T08:48:12;100828.63;;;18.01;50.30
55442;BME280;41313;58.740;50.174;2022-09-13T08:53:16;100828.16;;;18.07;50.50
55442;BME280;41313;58.740;50.174;2022-09-13T09:09:19;100816.53;;;18.20;49.36
55442;BME280;41313;58.740;50.174;2022-09-13T09:14:29;100824.88;;;18.27;49.22
55442;BME280;41313;58.740;50.174;2022-09-13T09:19:35;100820.97;;;18.20;49.33
55442;BME280;41313;58.740;50.174;2022-09-13T09:24:45;100813.44;;;18.14;48.59
55442;BME280;41313;58.740;50.174;2022-09-13T09:29:51;100820.91;;;18.33;49.18
55442;BME280;41313;58.740;50.174;2022-09-13T09:35:34;100812.84;;;18.45;49.25
55442;BME280;41313;58.740;50.174;2022-09-13T09:40:39;100818.03;;;18.47;48.74
55442;BME280;41313;58.740;50.174;2022-09-13T09:45:43;100811.25;;;18.43;49.37
55442;BME280;41313;58.740;50.174;2022-09-13T09:50:50;100822.31;;;18.61;48.83
55442;BME280;41313;58.740;50.174;2022-09-13T10:01:27;100801.22;;;18.82;49.79
55442;BME280;41313;58.740;50.174;2022-09-13T10:06:30;100797.66;;;18.70;49.98
55442;BME280;41313;58.740;50.174;2022-09-13T10:17:05;100795.72;;;18.61;49.58
55442;BME280;41313;58.740;50.174;2022-09-13T10:22:11;100791.03;;;18.76;49.13
55442;BME280;41313;58.740;50.174;2022-09-13T10:27:34;100789.75;;;18.93;48.78
55442;BME280;41313;58.740;50.174;2022-09-13T10:32:38;100783.91;;;18.76;48.95
55442;BME280;41313;58.740;50.174;2022-09-13T10:37:42;100787.78;;;18.95;47.94
55442;BME280;41313;58.740;50.174;2022-09-13T10:42:55;100782.47;;;18.95;47.73
55442;BME280;41313;58.740;50.174;2022-09-13T10:48:15;100774.91;;;18.66;46.84
55442;BME280;41313;58.740;50.174;2022-09-13T10:53:40;100766.59;;;18.82;47.24
55442;BME280;41313;58.740;50.174;2022-09-13T10:58:42;100761.19;;;18.83;47.46
55442;BME280;41313;58.740;50.174;2022-09-13T11:04:19;100755.19;;;18.68;48.11
55442;BME280;41313;58.740;50.174;2022-09-13T11:15:12;100763.19;;;18.22;47.68
55442;BME280;41313;58.740;50.174;2022-09-13T11:47:32;100746.94;;;17.66;46.18
55442;BME280;41313;58.740;50.174;2022-09-13T11:58:04;100737.44;;;17.50;46.37
55442;BME280;41313;58.740;50.174;2022-09-13T12:08:48;100725.06;;;17.38;47.49
55442;BME280;41313;58.740;50.174;2022-09-13T12:13:56;100738.69;;;17.58;45.59
55442;BME280;41313;58.740;50.174;2022-09-13T12:19:12;100734.25;;;17.58;45.96
55442;BME280;41313;58.740;50.174;2022-09-13T12:24:32;100729.78;;;17.59;45.50
55442;BME280;41313;58.740;50.174;2022-09-13T12:29:44;100723.00;;;17.79;44.32
55442;BME280;41313;58.740;50.174;2022-09-13T12:35:08;100722.16;;;17.78;43.92
55442;BME280;41313;58.740;50.174;2022-09-13T12:51:08;100723.50;;;17.60;46.68
55442;BME280;41313;58.740;50.174;2022-09-13T12:56:30;100716.25;;;17.62;47.01
55442;BME280;41313;58.740;50.174;2022-09-13T13:01:34;100724.53;;;17.70;47.05
55442;BME280;41313;58.740;50.174;2022-09-13T13:11:53;100721.97;;;17.68;45.75
55442;BME280;41313;58.740;50.174;2022-09-13T13:27:43;100716.25;;;17.62;46.71
55442;BME280;41313;58.740;50.174;2022-09-13T13:33:19;100710.09;;;17.61;47.02
55442;BME280;41313;58.740;50.174;2022-09-13T13:43:32;100705.56;;;17.50;48.16
55442;BME280;41313;58.740;50.174;2022-09-13T13:48:38;100702.16;;;17.48;48.13
55442;BME280;41313;58.740;50.174;2022-09-13T13:53:45;100699.13;;;17.42;48.45
55442;BME280;41313;58.740;50.174;2022-09-13T13:59:06;100703.81;;;17.38;49.29
55442;BME280;41313;58.740;50.174;2022-09-13T14:04:38;100698.78;;;17.46;50.33
55442;BME280;41313;58.740;50.174;2022-09-13T14:10:15;100696.13;;;17.46;50.51
55442;BME280;41313;58.740;50.174;2022-09-13T14:15:41;100696.59;;;17.40;50.88
55442;BME280;41313;58.740;50.174;2022-09-13T14:20:59;100700.75;;;17.31;51.05
55442;BME280;41313;58.740;50.174;2022-09-13T14:26:03;100705.88;;;17.22;52.09
55442;BME280;41313;58.740;50.174;2022-09-13T14:31:16;100702.19;;;17.12;52.43
55442;BME280;41313;58.740;50.174;2022-09-13T14:36:21;100702.84;;;17.02;52.29
55442;BME280;41313;58.740;50.174;2022-09-13T14:41:33;100704.97;;;16.97;52.68
55442;BME280;41313;58.740;50.174;2022-09-13T14:46:40;100704.88;;;16.86;52.34
55442;BME280;41313;58.740;50.174;2022-09-13T14:51:54;100703.28;;;16.71;52.96
55442;BME280;41313;58.740;50.174;2022-09-13T14:57:00;100698.31;;;16.66;52.49
55442;BME280;41313;58.740;50.174;2022-09-13T15:02:06;100694.25;;;16.48;53.62
55442;BME280;41313;58.740;50.174;2022-09-13T15:07:34;100701.28;;;16.36;53.87
55442;BME280;41313;58.740;50.174;2022-09-13T15:12:55;100703.69;;;16.13;54.53
55442;BME280;41313;58.740;50.174;2022-09-13T15:23:23;100698.13;;;15.91;55.17
55442;BME280;41313;58.740;50.174;2022-09-13T15:28:29;100696.84;;;15.84;56.00
55442;BME280;41313;58.740;50.174;2022-09-13T15:33:35;100693.66;;;15.64;56.52
55442;BME280;41313;58.740;50.174;2022-09-13T15:39:02;100686.59;;;15.38;57.59
55442;BME280;41313;58.740;50.174;2022-09-13T15:44:08;100680.78;;;15.18;58.25
55442;BME280;41313;58.740;50.174;2022-09-13T15:49:15;100674.59;;;14.91;59.10
55442;BME280;41313;58.740;50.174;2022-09-13T15:54:18;100676.47;;;14.89;58.89
55442;BME280;41313;58.740;50.174;2022-09-13T15:59:20;100676.28;;;14.77;58.75
55442;BME280;41313;58.740;50.174;2022-09-13T16:04:22;100661.19;;;14.79;58.66
55442;BME280;41313;58.740;50.174;2022-09-13T16:09:24;100657.56;;;14.80;59.59
55442;BME280;41313;58.740;50.174;2022-09-13T16:14:27;100658.81;;;14.75;59.46
55442;BME280;41313;58.740;50.174;2022-09-13T16:19:28;100664.00;;;14.62;59.79
55442;BME280;41313;58.740;50.174;2022-09-13T16:24:30;100655.28;;;14.31;61.24
55442;BME280;41313;58.740;50.174;2022-09-13T16:29:33;100655.09;;;14.20;61.43
55442;BME280;41313;58.740;50.174;2022-09-13T16:34:35;100650.06;;;14.16;61.75
55442;BME280;41313;58.740;50.174;2022-09-13T16:39:39;100654.66;;;13.98;61.77
55442;BME280;41313;58.740;50.174;2022-09-13T16:44:41;100659.22;;;13.80;61.70
55442;BME280;41313;58.740;50.174;2022-09-13T16:49:42;100648.72;;;13.64;62.03
55442;BME280;41313;58.740;50.174;2022-09-13T16:54:44;100654.72;;;13.52;62.76
55442;BME280;41313;58.740;50.174;2022-09-13T16:59:55;100669.72;;;13.51;63.26
55442;BME280;41313;58.740;50.174;2022-09-13T17:04:59;100663.16;;;13.42;63.31
55442;BME280;41313;58.740;50.174;2022-09-13T17:10:04;100667.50;;;13.43;63.37
55442;BME280;41313;58.740;50.174;2022-09-13T17:15:07;100668.69;;;13.54;63.65
55442;BME280;41313;58.740;50.174;2022-09-13T17:20:11;100682.28;;;13.62;63.44
55442;BME280;41313;58.740;50.174;2022-09-13T17:25:13;100676.56;;;13.70;63.75
55442;BME280;41313;58.740;50.174;2022-09-13T17:30:16;100682.22;;;13.63;63.93
55442;BME280;41313;58.740;50.174;2022-09-13T17:35:18;100681.41;;;13.77;63.74
55442;BME280;41313;58.740;50.174;2022-09-13T17:40:23;100685.16;;;13.73;63.32
55442;BME280;41313;58.740;50.174;2022-09-13T17:45:25;100687.56;;;13.62;63.54
55442;BME280;41313;58.740;50.174;2022-09-13T17:50:27;100684.34;;;13.57;63.81
55442;BME280;41313;58.740;50.174;2022-09-13T17:55:29;100683.34;;;13.43;63.73
55442;BME280;41313;58.740;50.174;2022-09-13T18:00:32;100673.00;;;13.23;64.02
55442;BME280;41313;58.740;50.174;2022-09-13T18:05:35;100673.25;;;13.03;64.63
55442;BME280;41313;58.740;50.174;2022-09-13T18:10:37;100672.41;;;12.86;64.59
55442;BME280;41313;58.740;50.174;2022-09-13T18:15:39;100663.72;;;12.84;64.32
55442;BME280;41313;58.740;50.174;2022-09-13T18:20:44;100663.22;;;12.77;64.63
55442;BME280;41313;58.740;50.174;2022-09-13T18:26:01;100665.69;;;12.81;63.69
55442;BME280;41313;58.740;50.174;2022-09-13T18:31:05;100669.38;;;12.61;63.79
55442;BME280;41313;58.740;50.174;2022-09-13T18:46:16;100663.41;;;12.24;63.97
55442;BME280;41313;58.740;50.174;2022-09-13T18:51:20;100674.50;;;12.13;64.00
55442;BME280;41313;58.740;50.174;2022-09-13T18:56:22;100670.75;;;11.65;65.00
55442;BME280;41313;58.740;50.174;2022-09-13T19:01:27;100666.97;;;11.34;66.11
55442;BME280;41313;58.740;50.174;2022-09-13T19:06:35;100674.63;;;11.39;65.75
55442;BME280;41313;58.740;50.174;2022-09-13T19:11:41;100679.00;;;11.21;65.28
55442;BME280;41313;58.740;50.174;2022-09-13T19:16:43;100676.09;;;11.08;65.37
55442;BME280;41313;58.740;50.174;2022-09-13T19:21:45;100680.25;;;10.95;65.41
55442;BME280;41313;58.740;50.174;2022-09-13T19:26:49;100682.56;;;10.82;65.36
55442;BME280;41313;58.740;50.174;2022-09-13T19:31:51;100688.72;;;10.83;65.54
55442;BME280;41313;58.740;50.174;2022-09-13T19:36:53;100697.41;;;10.64;65.67
55442;BME280;41313;58.740;50.174;2022-09-13T19:42:08;100690.44;;;10.63;65.15
55442;BME280;41313;58.740;50.174;2022-09-13T19:47:11;100688.88;;;10.59;65.24
55442;BME280;41313;58.740;50.174;2022-09-13T19:52:13;100695.13;;;10.57;65.21
55442;BME280;41313;58.740;50.174;2022-09-13T19:57:15;100693.09;;;10.43;65.25
55442;BME280;41313;58.740;50.174;2022-09-13T20:02:16;100691.69;;;10.36;65.28
55442;BME280;41313;58.740;50.174;2022-09-13T20:07:18;100695.56;;;10.27;65.08
55442;BME280;41313;58.740;50.174;2022-09-13T20:12:20;100690.72;;;10.16;65.14
55442;BME280;41313;58.740;50.174;2022-09-13T20:17:24;100688.69;;;10.02;64.94
55442;BME280;41313;58.740;50.174;2022-09-13T20:22:30;100693.28;;;9.97;65.00
55442;BME280;41313;58.740;50.174;2022-09-13T20:27:32;100691.69;;;9.93;65.22
55442;BME280;41313;58.740;50.174;2022-09-13T20:32:33;100688.59;;;9.84;65.04
55442;BME280;41313;58.740;50.174;2022-09-13T20:37:35;100690.56;;;9.78;65.53
55442;BME280;41313;58.740;50.174;2022-09-13T20:42:36;100695.03;;;9.76;64.83
55442;BME280;41313;58.740;50.174;2022-09-13T20:47:38;100692.22;;;9.59;65.70
55442;BME280;41313;58.740;50.174;2022-09-13T20:52:40;100688.03;;;9.55;65.42
55442;BME280;41313;58.740;50.174;2022-09-13T20:57:43;100696.88;;;9.52;65.08
55442;BME280;41313;58.740;50.174;2022-09-13T21:02:44;100695.84;;;9.56;64.50
55442;BME280;41313;58.740;50.174;2022-09-13T21:07:46;100690.72;;;9.31;65.83
55442;BME280;41313;58.740;50.174;2022-09-13T21:13:06;100693.19;;;9.12;65.31
55442;BME280;41313;58.740;50.174;2022-09-13T21:18:09;100696.00;;;9.08;66.06
55442;BME280;41313;58.740;50.174;2022-09-13T21:23:11;100701.47;;;9.02;65.53
55442;BME280;41313;58.740;50.174;2022-09-13T21:28:12;100697.25;;;8.98;65.75
55442;BME280;41313;58.740;50.174;2022-09-13T21:33:15;100697.38;;;8.95;65.49
55442;BME280;41313;58.740;50.174;2022-09-13T21:38:17;100688.84;;;8.89;65.89
55442;BME280;41313;58.740;50.174;2022-09-13T21:43:19;100693.19;;;8.89;65.86
55442;BME280;41313;58.740;50.174;2022-09-13T21:48:21;100690.53;;;8.90;65.56
55442;BME280;41313;58.740;50.174;2022-09-13T21:53:23;100685.91;;;8.74;65.65
55442;BME280;41313;58.740;50.174;2022-09-13T21:58:24;100690.47;;;8.92;65.85
55442;BME280;41313;58.740;50.174;2022-09-13T22:03:27;100676.38;;;8.95;65.73
55442;BME280;41313;58.740;50.174;2022-09-13T22:08:30;100679.22;;;9.12;65.52
55442;BME280;41313;58.740;50.174;2022-09-13T22:13:34;100678.66;;;9.04;66.29
55442;BME280;41313;58.740;50.174;2022-09-13T22:18:36;100670.09;;;9.22;65.83
55442;BME280;41313;58.740;50.174;2022-09-13T22:23:38;100676.13;;;9.24;66.54
55442;BME280;41313;58.740;50.174;2022-09-13T22:28:40;100674.97;;;9.31;65.98
55442;BME280;41313;58.740;50.174;2022-09-13T22:33:43;100675.03;;;9.30;66.08
55442;BME280;41313;58.740;50.174;2022-09-13T22:38:46;100680.16;;;9.33;65.79
55442;BME280;41313;58.740;50.174;2022-09-13T22:43:49;100677.72;;;9.28;65.43
55442;BME280;41313;58.740;50.174;2022-09-13T22:48:52;100676.06;;;9.26;65.59
55442;BME280;41313;58.740;50.174;2022-09-13T22:53:55;100681.16;;;9.07;66.47
55442;BME280;41313;58.740;50.174;2022-09-13T22:58:59;100669.59;;;9.12;65.40
55442;BME280;41313;58.740;50.174;2022-09-13T23:04:01;100676.47;;;8.93;66.12
55442;BME280;41313;58.740;50.174;2022-09-13T23:09:05;100675.72;;;8.89;66.01
55442;BME280;41313;58.740;50.174;2022-09-13T23:14:11;100685.53;;;8.84;65.74
55442;BME280;41313;58.740;50.174;2022-09-13T23:19:14;100677.78;;;8.81;65.44
55442;BME280;41313;58.740;50.174;2022-09-13T23:24:17;100675.63;;;8.93;65.64
55442;BME280;41313;58.740;50.174;2022-09-13T23:29:19;100672.00;;;8.95;66.45
55442;BME280;41313;58.740;50.174;2022-09-13T23:34:21;100670.78;;;9.04;65.40
55442;BME280;41313;58.740;50.174;2022-09-13T23:39:24;100666.34;;;9.06;65.50
55442;BME280;41313;58.740;50.174;2022-09-13T23:44:27;100668.47;;;8.96;65.84
55442;BME280;41313;58.740;50.174;2022-09-13T23:49:29;100669.44;;;8.94;65.57
55442;BME280;41313;58.740;50.174;2022-09-13T23:54:31;100655.09;;;8.80;65.29
55442;BME280;41313;58.740;50.174;2022-09-13T23:59:32;100658.16;;;8.68;65.38
